createdAt,value
2019-03-01T00:02:48.372Z,19.73
2019-03-01T00:07:37.369Z,17.27
2019-03-01T00:11:53.150Z,21.17
2019-03-01T00:16:11.461Z,20.77
2019-03-01T00:20:52.195Z,21.67
2019-03-01T00:25:09.328Z,26.40
2019-03-01T00:29:51.353Z,22.27
2019-03-01T00:34:40.155Z,26.67
2019-03-01T00:39:18.789Z,22.00
2019-03-01T00:43:59.663Z,22.10
2019-03-01T00:48:04.841Z,22.87
2019-03-01T00:52:10.353Z,22.73
2019-03-01T00:56:15.487Z,24.90
2019-03-01T01:00:43.100Z,22.47
2019-03-01T01:04:48.244Z,22.63
2019-03-01T01:08:53.346Z,23.63
2019-03-01T01:12:58.524Z,25.77
2019-03-01T01:17:03.605Z,21.70
2019-03-01T01:21:08.744Z,33.03
2019-03-01T01:25:13.939Z,24.93
2019-03-01T01:29:19.110Z,25.57
2019-03-01T01:33:24.281Z,27.67
2019-03-01T01:37:29.441Z,23.53
2019-03-01T01:41:34.597Z,24.80
2019-03-01T01:45:39.707Z,28.70
2019-03-01T01:49:45.105Z,35.43
2019-03-01T01:53:50.553Z,31.07
2019-03-01T01:57:55.698Z,26.43
2019-03-01T02:02:01.759Z,39.17
2019-03-01T02:06:07.012Z,29.13
2019-03-01T02:10:12.105Z,29.93
2019-03-01T02:14:17.166Z,33.90
2019-03-01T02:18:22.220Z,34.33
2019-03-01T02:22:27.413Z,41.37
2019-03-01T02:26:32.552Z,38.53
2019-03-01T02:30:37.706Z,43.20
2019-03-01T02:34:42.716Z,43.23
2019-03-01T02:38:47.909Z,43.33
2019-03-01T02:42:53.420Z,31.13
2019-03-01T02:46:58.557Z,37.57
2019-03-01T02:51:03.619Z,36.63
2019-03-01T02:55:09.613Z,44.00
2019-03-01T02:59:14.755Z,39.03
2019-03-01T03:03:19.914Z,35.87
2019-03-01T03:07:32.910Z,30.20
2019-03-01T03:11:37.987Z,32.83
2019-03-01T03:15:45.565Z,30.83
2019-03-01T03:19:50.674Z,32.47
2019-03-01T03:23:55.819Z,32.93
2019-03-01T03:28:00.916Z,34.77
2019-03-01T03:32:05.991Z,38.77
2019-03-01T03:36:11.068Z,38.20
2019-03-01T03:40:16.488Z,37.73
2019-03-01T03:44:21.567Z,36.33
2019-03-01T03:48:26.794Z,44.40
2019-03-01T03:52:31.944Z,44.33
2019-03-01T03:56:37.077Z,40.03
2019-03-01T04:00:42.298Z,50.90
2019-03-01T04:04:47.369Z,40.13
2019-03-01T04:08:52.577Z,30.20
2019-03-01T04:12:58.569Z,37.13
2019-03-01T04:17:03.754Z,41.27
2019-03-01T04:21:08.837Z,34.33
2019-03-01T04:25:14.001Z,31.80
2019-03-01T04:29:19.005Z,38.20
2019-03-01T04:33:24.041Z,38.40
2019-03-01T04:37:29.156Z,42.23
2019-03-01T04:41:34.206Z,38.03
2019-03-01T04:45:39.417Z,38.30
2019-03-01T04:49:46.271Z,36.97
2019-03-01T04:53:51.482Z,48.07
2019-03-01T04:57:56.624Z,37.10
2019-03-01T05:02:01.817Z,38.07
2019-03-01T05:06:06.951Z,44.33
2019-03-01T05:10:12.319Z,39.00
2019-03-01T05:14:17.515Z,47.43
2019-03-01T05:18:22.685Z,50.00
2019-03-01T05:22:27.720Z,53.43
2019-03-01T05:26:32.804Z,59.97
2019-03-01T05:30:37.885Z,60.80
2019-03-01T05:34:43.032Z,67.97
2019-03-01T05:38:48.110Z,76.30
2019-03-01T05:42:53.316Z,96.30
2019-03-01T05:47:00.753Z,147.40
2019-03-01T05:51:05.874Z,162.53
2019-03-01T05:55:11.126Z,166.80
2019-03-01T05:59:21.656Z,177.27
2019-03-01T06:03:56.158Z,191.73
2019-03-01T06:08:39.500Z,171.47
2019-03-01T06:13:23.180Z,205.90
2019-03-01T06:17:57.802Z,216.03
2019-03-01T06:22:56.249Z,204.90
2019-03-01T06:27:46.088Z,272.43
2019-03-01T06:32:34.912Z,259.73
2019-03-01T06:37:03.984Z,266.77
2019-03-01T06:41:35.281Z,293.60
2019-03-01T06:46:17.389Z,266.93
2019-03-01T06:50:44.194Z,252.80
2019-03-01T06:54:49.660Z,287.33
2019-03-01T06:58:59.913Z,289.60
2019-03-01T07:03:05.111Z,277.03
2019-03-01T07:07:10.487Z,271.57
2019-03-01T07:11:15.853Z,268.97
2019-03-01T07:15:21.070Z,271.47
2019-03-01T07:19:26.149Z,261.83
2019-03-01T07:23:36.808Z,249.93
2019-03-01T07:27:39.777Z,250.87
2019-03-01T07:31:44.894Z,211.13
2019-03-01T07:35:51.016Z,223.40
2019-03-01T07:39:56.049Z,250.70
2019-03-01T07:44:01.673Z,258.13
2019-03-01T07:48:06.786Z,348.50
2019-03-01T07:52:12.051Z,308.30
2019-03-01T07:56:17.154Z,316.73
2019-03-01T08:00:22.362Z,238.07
2019-03-01T08:04:29.552Z,197.77
2019-03-01T08:08:34.885Z,212.47
2019-03-01T08:12:42.500Z,206.07
2019-03-01T08:16:47.988Z,224.97
2019-03-01T08:20:53.141Z,232.30
2019-03-01T08:24:58.285Z,240.73
2019-03-01T08:29:03.553Z,207.67
2019-03-01T08:33:08.799Z,192.70
2019-03-01T08:37:14.513Z,177.40
2019-03-01T08:41:21.520Z,230.03
2019-03-01T08:45:29.687Z,216.27
2019-03-01T08:49:34.809Z,247.80
2019-03-01T08:53:39.888Z,208.07
2019-03-01T08:57:44.999Z,238.87
2019-03-01T09:01:50.206Z,196.13
2019-03-01T09:05:55.433Z,239.60
2019-03-01T09:10:00.611Z,243.43
2019-03-01T09:14:05.782Z,227.80
2019-03-01T09:18:14.571Z,237.20
2019-03-01T09:22:19.231Z,243.17
2019-03-01T09:26:24.533Z,278.00
2019-03-01T09:30:29.775Z,271.67
2019-03-01T09:34:34.972Z,270.30
2019-03-01T09:38:42.920Z,271.53
2019-03-01T09:42:51.267Z,247.93
2019-03-01T09:46:54.678Z,278.07
2019-03-01T09:50:59.857Z,210.63
2019-03-01T09:55:05.578Z,213.50
2019-03-01T09:59:11.061Z,237.40
2019-03-01T10:03:16.251Z,254.87
2019-03-01T10:07:21.413Z,196.47
2019-03-01T10:11:26.491Z,202.33
2019-03-01T10:15:31.665Z,175.73
2019-03-01T10:19:36.748Z,188.30
2019-03-01T10:23:41.970Z,205.90
2019-03-01T10:27:47.384Z,185.17
2019-03-01T10:31:52.538Z,170.63
2019-03-01T10:35:57.805Z,172.27
2019-03-01T10:40:03.916Z,166.77
2019-03-01T10:44:09.022Z,158.07
2019-03-01T10:48:14.150Z,164.90
2019-03-01T10:52:19.229Z,180.00
2019-03-01T10:56:24.439Z,202.80
2019-03-01T11:00:29.736Z,188.50
2019-03-01T11:04:35.002Z,214.20
2019-03-01T11:08:40.043Z,255.67
2019-03-01T11:12:45.262Z,241.50
2019-03-01T11:16:50.722Z,303.17
2019-03-01T11:20:55.842Z,249.62
2019-03-01T11:25:00.967Z,241.30
2019-03-01T11:29:06.126Z,258.37
2019-03-01T11:33:11.322Z,311.43
2019-03-01T11:37:16.480Z,353.03
2019-03-01T11:41:21.616Z,327.00
2019-03-01T11:45:26.678Z,367.60
2019-03-01T11:49:31.855Z,313.80
2019-03-01T11:53:37.043Z,311.60
2019-03-01T11:57:42.190Z,384.50
2019-03-01T12:01:47.317Z,373.83
2019-03-01T12:05:55.727Z,423.70
2019-03-01T12:10:00.855Z,284.47
2019-03-01T12:14:06.144Z,245.83
2019-03-01T12:18:11.336Z,247.33
2019-03-01T12:22:17.329Z,162.47
2019-03-01T12:26:22.473Z,91.60
2019-03-01T12:30:27.688Z,56.20
2019-03-01T12:34:33.228Z,48.40
2019-03-01T12:38:39.286Z,52.90
2019-03-01T12:42:44.406Z,51.20
2019-03-01T12:46:49.593Z,53.57
2019-03-01T12:50:55.083Z,60.13
2019-03-01T12:55:00.436Z,72.73
2019-03-01T12:59:05.574Z,72.63
2019-03-01T13:03:10.656Z,91.47
2019-03-01T13:07:15.765Z,83.07
2019-03-01T13:11:20.805Z,72.80
2019-03-01T13:15:28.126Z,60.47
2019-03-01T13:19:33.246Z,61.97
2019-03-01T13:23:40.471Z,60.23
2019-03-01T13:27:48.660Z,56.43
2019-03-01T13:31:52.301Z,60.07
2019-03-01T13:35:59.959Z,46.57
2019-03-01T13:40:06.308Z,53.63
2019-03-01T13:44:11.728Z,52.80
2019-03-01T13:48:18.948Z,48.53
2019-03-01T13:52:26.673Z,43.77
2019-03-01T13:56:32.799Z,40.47
2019-03-01T14:00:39.796Z,46.23
2019-03-01T14:04:44.974Z,54.70
2019-03-01T14:08:50.086Z,43.73
2019-03-01T14:12:55.287Z,50.50
2019-03-01T14:17:00.750Z,40.03
2019-03-01T14:21:06.324Z,41.73
2019-03-01T14:25:11.673Z,45.43
2019-03-01T14:29:17.807Z,45.73
2019-03-01T14:33:22.996Z,44.07
2019-03-01T14:37:28.421Z,43.57
2019-03-01T14:41:35.081Z,34.40
2019-03-01T14:45:41.658Z,37.87
2019-03-01T14:49:47.424Z,46.37
2019-03-01T14:53:52.574Z,44.40
2019-03-01T14:58:24.521Z,37.60
2019-03-01T15:02:44.121Z,39.50
2019-03-01T15:06:51.338Z,35.60
2019-03-01T15:10:56.294Z,35.63
2019-03-01T15:15:01.588Z,36.57
2019-03-01T15:19:09.018Z,34.53
2019-03-01T15:23:15.514Z,36.23
2019-03-01T15:27:20.544Z,32.33
2019-03-01T15:31:25.771Z,38.93
2019-03-01T15:35:30.897Z,34.37
2019-03-01T15:39:36.130Z,34.33
2019-03-01T15:43:41.274Z,32.37
2019-03-01T15:47:46.859Z,36.40
2019-03-01T15:51:51.996Z,35.23
2019-03-01T15:55:57.141Z,37.87
2019-03-01T16:00:03.449Z,34.33
2019-03-01T16:04:10.331Z,35.57
2019-03-01T16:08:15.443Z,37.67
2019-03-01T16:12:20.531Z,38.13
2019-03-01T16:16:25.675Z,35.53
2019-03-01T16:20:30.813Z,42.20
2019-03-01T16:24:37.566Z,34.63
2019-03-01T16:28:42.805Z,34.17
2019-03-01T16:32:50.392Z,26.73
2019-03-01T16:36:56.963Z,22.67
2019-03-01T16:41:07.442Z,19.80
2019-03-01T16:45:09.885Z,20.57
2019-03-01T16:49:15.404Z,19.73
2019-03-01T16:53:20.504Z,20.40
2019-03-01T16:57:25.733Z,16.60
2019-03-01T17:01:30.880Z,19.37
2019-03-01T17:05:38.736Z,20.47
2019-03-01T17:09:47.319Z,18.77
2019-03-01T17:13:51.705Z,23.53
2019-03-01T17:17:56.956Z,28.80
2019-03-01T17:22:03.071Z,19.87
2019-03-01T17:26:08.173Z,17.00
2019-03-01T17:30:17.693Z,16.07
2019-03-01T17:34:25.765Z,16.50
2019-03-01T17:38:30.069Z,17.60
2019-03-01T17:42:35.295Z,14.07
2019-03-01T17:46:40.343Z,17.27
2019-03-01T17:50:45.682Z,16.95
2019-03-01T17:54:51.941Z,18.43
2019-03-01T17:58:57.136Z,24.53
2019-03-01T18:03:02.525Z,18.63
2019-03-01T18:07:07.731Z,17.50
2019-03-01T18:11:12.867Z,26.00
2019-03-01T18:15:18.031Z,30.07
2019-03-01T18:19:23.789Z,22.50
2019-03-01T18:23:29.979Z,37.40
2019-03-01T18:27:35.094Z,26.20
2019-03-01T18:31:40.482Z,26.43
2019-03-01T18:35:45.728Z,26.80
2019-03-01T18:39:50.835Z,20.17
2019-03-01T18:43:55.982Z,29.03
2019-03-01T18:48:01.106Z,22.63
2019-03-01T18:52:06.228Z,18.67
2019-03-01T18:56:11.697Z,18.30
2019-03-01T19:00:22.360Z,14.93
2019-03-01T19:04:29.651Z,13.30
2019-03-01T19:08:36.460Z,15.23
2019-03-01T19:12:44.941Z,12.47
2019-03-01T19:16:48.697Z,13.37
2019-03-01T19:20:53.894Z,28.07
2019-03-01T19:24:59.083Z,16.37
2019-03-01T19:29:05.228Z,15.13
2019-03-01T19:33:10.405Z,17.00
2019-03-01T19:37:15.636Z,18.17
2019-03-01T19:41:22.941Z,13.83
2019-03-01T19:45:27.591Z,18.13
2019-03-01T19:49:34.136Z,16.83
2019-03-01T19:53:39.334Z,15.97
2019-03-01T19:57:44.439Z,32.77
2019-03-01T20:01:52.385Z,28.53
2019-03-01T20:05:56.420Z,26.87
2019-03-01T20:10:01.533Z,21.30
2019-03-01T20:14:11.960Z,19.67
2019-03-01T20:18:23.518Z,25.23
2019-03-01T20:22:27.874Z,20.17
2019-03-01T20:26:39.509Z,22.67
2019-03-01T20:30:41.064Z,26.23
2019-03-01T20:34:46.218Z,23.43
2019-03-01T20:38:51.313Z,23.13
2019-03-01T20:43:06.608Z,23.47
2019-03-01T20:47:06.395Z,22.17
2019-03-01T20:51:17.360Z,31.37
2019-03-01T20:55:26.132Z,25.80
2019-03-01T20:59:32.880Z,21.97
2019-03-01T21:03:38.087Z,25.83
2019-03-01T21:07:43.384Z,26.37
2019-03-01T21:11:52.108Z,25.70
2019-03-01T21:15:58.222Z,21.97
2019-03-01T21:20:04.688Z,23.73
2019-03-01T21:24:10.300Z,21.67
2019-03-01T21:28:15.418Z,24.17
2019-03-01T21:32:20.484Z,21.90
2019-03-01T21:36:27.123Z,19.80
2019-03-01T21:40:34.587Z,19.10
2019-03-01T21:44:42.589Z,16.70
2019-03-01T21:48:46.345Z,20.40
2019-03-01T21:52:51.558Z,15.77
2019-03-01T21:56:57.093Z,15.93
2019-03-01T22:01:02.663Z,15.30
2019-03-01T22:05:10.357Z,13.53
2019-03-01T22:09:16.806Z,13.53
2019-03-01T22:13:21.902Z,14.60
2019-03-01T22:17:27.261Z,11.43
2019-03-01T22:21:32.428Z,12.70
2019-03-01T22:25:37.901Z,14.03
2019-03-01T22:29:43.596Z,12.53
2019-03-01T22:33:55.873Z,13.97
2019-03-01T22:38:05.497Z,14.53
2019-03-01T22:42:15.781Z,16.00
2019-03-01T22:46:27.997Z,15.37
2019-03-01T22:50:39.499Z,16.43
2019-03-01T22:54:46.036Z,18.10
2019-03-01T22:58:54.777Z,22.20
2019-03-01T23:02:59.984Z,18.63
2019-03-01T23:07:05.270Z,19.20
2019-03-01T23:11:15.928Z,22.10
2019-03-01T23:15:27.642Z,20.97
2019-03-01T23:19:30.918Z,23.93
2019-03-01T23:23:38.863Z,23.87
2019-03-01T23:27:43.976Z,25.60
2019-03-01T23:31:49.109Z,28.50
2019-03-01T23:35:54.319Z,24.00
2019-03-01T23:40:00.986Z,26.33
2019-03-01T23:44:17.303Z,23.90
2019-03-01T23:48:22.405Z,31.23
2019-03-01T23:52:27.523Z,28.33
2019-03-01T23:56:32.636Z,31.85
